Sagar Kanya — VTJR — position and weather

sailwx.info

Track history (hours):
 
Tides and Currents Weather Stations Pressure Air Temp Water Temp Dewpoint Dewpoint Depression Visibility Wind Speed Wind Dir Waves Ship Positions

Oceanographic research ship Sagar Kanya (India)

Detailed information on ship capabilities available from University of Delaware's Ocean Information Center.

Last reported at 2019-Oct-16 03:02 UTC. Time now 2019-Oct-17 16:26 UTC.
Position N 08°36' E 076°12'.

Type: Other ship. MMSI: 419320000.

Wind from 360 at 8 knots

Barometer 1011.3 mb
Air temperature 27.8 ° C

Date/timePositionNaut miles runAvg speedWind from/ knotsBaromVisibWave heightAir tempDewpointWater temp
2019-Oct-16 03:02N 08°36' E 076°12'6 2.0 360 / 81011.3 27.8
2019-Oct-16 00:02N 08°36' E 076°18'17 4.8 020 / 81008.9 28.2
2019-Oct-15 20:32N 08°48' E 076°30'6 2.4 010 / 101010.3 27.6
2019-Oct-15 18:02N 08°48' E 076°36'12 4.0 050 / 101011.6 27.8
2019-Oct-15 15:02N 08°36' E 076°36'6 2.0 350 / 61011.1 28.3
2019-Oct-15 12:02N 08°36' E 076°30'17 4.8 320 / 81008.6 27.8
2019-Oct-15 08:32N 08°24' E 076°18'0 0.0 330 / 81009.6 28.3
2019-Oct-15 06:02N 08°24' E 076°18'8 2.4 030 / 101012.3 27.7
2019-Oct-15 02:32N 08°18' E 076°24'6 2.4 320 / 121012.0 26.2
2019-Oct-15 00:02N 08°24' E 076°24'12 4.0 310 / 41010.7 25.8
2019-Oct-14 21:02N 08°24' E 076°36'8 2.8 180 / 81009.4 27.3
2019-Oct-14 18:02N 08°30' E 076°42'8 2.8 020 / 101011.4 27.7
2019-Oct-14 15:02N 08°24' E 076°48'8 2.8 240 / 21011.0 28.4
2019-Oct-14 12:02N 08°18' E 076°54'17 5.6 180 / 101008.5 29.0
2019-Oct-14 09:02N 08°06' E 076°42'13 2.2 190 / 41008.7 29.4
2019-Oct-14 03:03N 08°00' E 076°54'25 8.2 050 / 81012.3 28.0
2019-Oct-14 00:03N 07°54' E 077°18'19 6.3 360 / 101010.4 27.4
2019-Oct-13 21:03N 07°48' E 077°36'6 2.0 330 / 81010.8 27.6
2019-Oct-13 18:03N 07°48' E 077°30'12 4.0 310 / 101012.8 28.1
2019-Oct-13 15:03N 07°36' E 077°30'18 6.0 250 / 81012.1 27.9
2019-Oct-13 12:03N 07°18' E 077°30'18 5.1 250 / 161009.3 27.7
2019-Oct-13 08:33N 07°00' E 077°30'6 2.4 1010.2 27.0
2019-Oct-13 06:03N 07°00' E 077°36'13 4.4 320 / 61012.5 28.5
2019-Oct-13 03:03N 06°54' E 077°48'27 8.9 250 / 41012.6 27.7
2019-Oct-13 00:03N 06°42' E 078°12'61 9.5 320 / 41010.3 27.4
2019-Oct-12 17:33N 06°12' E 079°06'25 8.2 190 / 21012.5 27.4
2019-Oct-12 14:33N 06°06' E 079°30'8 3.4 280 / 121011.2 25.2
2019-Oct-12 12:03N 06°00' E 079°36'19 6.3 100 / 41009.7 27.9
2019-Oct-12 09:03N 05°54' E 079°54'3010.1 340 / 21009.4 28.2
2019-Oct-12 06:03N 05°48' E 080°24'30 9.9 140 / 41011.9 27.8
2019-Oct-12 03:03N 05°48' E 080°54'59 9.8 1011.7 27.0
2019-Oct-11 21:03N 06°12' E 081°48'27 8.9 320 / 101009.9 26.1
2019-Oct-11 18:03N 06°36' E 082°00'24 8.0 280 / 141011.8 26.8
2019-Oct-11 15:03N 07°00' E 082°00'42 7.1 290 / 161012.1 26.4
2019-Oct-11 09:03N 07°42' E 082°06'25 8.2 320 / 61009.4 28.3
2019-Oct-11 06:03N 08°06' E 082°00'22 7.2 350 / 81012.4 28.4
2019-Oct-11 03:03N 08°24' E 081°48'22 7.2 210 / 81013.0 26.9
2019-Oct-11 00:03N 08°42' E 081°36'19 6.3 310 / 121010.5 27.8
2019-Oct-10 21:03N 09°00' E 081°30'22 7.2 280 / 141010.4 27.7
2019-Oct-10 18:03N 09°18' E 081°18'22 7.2 230 / 101012.0 28.5
2019-Oct-10 15:03N 09°36' E 081°06'27 8.9 210 / 81011.3 28.8
2019-Oct-10 12:03N 10°00' E 080°54'27 7.6 240 / 41009.2 28.9
2019-Oct-10 08:33N 10°24' E 080°42'6 2.4 260 / 101010.1 29.1
2019-Oct-10 06:03N 10°30' E 080°42'18 2.0 200 / 61012.2 30.5
2019-Oct-09 21:03N 10°30' E 080°24'18 5.9 170 / 141009.7 28.5
2019-Oct-09 18:03N 10°30' E 080°06'12 3.9 150 / 121011.4 28.8
2019-Oct-09 15:03N 10°30' E 080°18'12 3.4 120 / 141011.7 29.0
2019-Oct-09 11:33N 10°30' E 080°30'6 2.4 110 / 61008.3 30.2
2019-Oct-09 09:03N 10°30' E 080°36'6 2.0 200 / 41008.8 30.3
2019-Oct-09 06:03N 10°30' E 080°42'6 2.0 160 / 21011.3 30.1
2019-Oct-09 03:03N 10°36' E 080°42'24 8.0 220 / 61012.0 28.7
2019-Oct-09 00:03N 11°00' E 080°42'24 8.0 220 / 61010.4 28.2
2019-Oct-08 21:03N 11°24' E 080°42'3010.0 190 / 81010.0 28.1
2019-Oct-08 18:03N 11°54' E 080°42'30 8.6 220 / 41011.7 28.5
2019-Oct-08 14:33N 12°24' E 080°42'18 2.1 180 / 81010.7 28.7
2019-Oct-08 06:03N 12°42' E 080°42'0 0.0 220 / 101011.3 28.7
2019-Oct-08 03:03N 12°42' E 080°42'8 2.8 280 / 81012.1 28.4
2019-Oct-08 00:03N 12°48' E 080°36'17 5.6 280 / 121010.4 28.1
2019-Oct-07 21:03N 13°00' E 080°24'8 2.8 200 / 81010.4 28.3
2019-Oct-07 18:03N 13°06' E 080°18'0 0.0 170 / 61011.6 28.5
2019-Oct-07 15:03N 13°06' E 080°18'0 0.0 160 / 61011.4 28.9
2019-Oct-07 12:03N 13°06' E 080°18'0 0.0 150 / 101008.2 29.1
2019-Oct-07 09:03N 13°06' E 080°18'0 0.0 150 / 81008.8 29.5
2019-Oct-07 06:03N 13°06' E 080°18'0 0.0 140 / 101011.9 29.9
2019-Oct-07 03:03N 13°06' E 080°18'0 0.0 220 / 41013.2 29.9
2019-Oct-06 15:03N 13°06' E 080°18'0 0.0 180 / 61011.1 28.6
2019-Oct-06 12:03N 13°06' E 080°18'0 0.0 180 / 41008.6 29.2
2019-Oct-06 06:03N 13°06' E 080°18'0 0.0 170 / 61012.3 29.5
2019-Oct-06 03:03N 13°06' E 080°18'   220 / 21013.3 30.7
Track history (hours):
 
Tides and Currents Weather Stations Pressure Air Temp Water Temp Dewpoint Dewpoint Depression Visibility Wind Speed Wind Dir Waves Ship Positions

Oceanographic research ship Sagar Kanya (India)

Detailed information on ship capabilities available from University of Delaware's Ocean Information Center.

Last reported at 2019-Oct-16 03:02 UTC. Time now 2019-Oct-17 16:26 UTC.
Position N 08°36' E 076°12'.

Type: Other ship. MMSI: 419320000.

Wind from 360 at 8 knots

Barometer 1011.3 mb
Air temperature 27.8 ° C

Date/timePositionNaut miles runAvg speedWind from/ knotsBaromVisibWave heightAir tempDewpointWater temp
2019-Oct-16 03:02N 08°36' E 076°12'6 2.0 360 / 81011.3 27.8
2019-Oct-16 00:02N 08°36' E 076°18'17 4.8 020 / 81008.9 28.2
2019-Oct-15 20:32N 08°48' E 076°30'6 2.4 010 / 101010.3 27.6
2019-Oct-15 18:02N 08°48' E 076°36'12 4.0 050 / 101011.6 27.8
2019-Oct-15 15:02N 08°36' E 076°36'6 2.0 350 / 61011.1 28.3
2019-Oct-15 12:02N 08°36' E 076°30'17 4.8 320 / 81008.6 27.8
2019-Oct-15 08:32N 08°24' E 076°18'0 0.0 330 / 81009.6 28.3
2019-Oct-15 06:02N 08°24' E 076°18'8 2.4 030 / 101012.3 27.7
2019-Oct-15 02:32N 08°18' E 076°24'6 2.4 320 / 121012.0 26.2
2019-Oct-15 00:02N 08°24' E 076°24'12 4.0 310 / 41010.7 25.8
2019-Oct-14 21:02N 08°24' E 076°36'8 2.8 180 / 81009.4 27.3
2019-Oct-14 18:02N 08°30' E 076°42'8 2.8 020 / 101011.4 27.7
2019-Oct-14 15:02N 08°24' E 076°48'8 2.8 240 / 21011.0 28.4
2019-Oct-14 12:02N 08°18' E 076°54'17 5.6 180 / 101008.5 29.0
2019-Oct-14 09:02N 08°06' E 076°42'13 2.2 190 / 41008.7 29.4
2019-Oct-14 03:03N 08°00' E 076°54'25 8.2 050 / 81012.3 28.0
2019-Oct-14 00:03N 07°54' E 077°18'19 6.3 360 / 101010.4 27.4
2019-Oct-13 21:03N 07°48' E 077°36'6 2.0 330 / 81010.8 27.6
2019-Oct-13 18:03N 07°48' E 077°30'12 4.0 310 / 101012.8 28.1
2019-Oct-13 15:03N 07°36' E 077°30'18 6.0 250 / 81012.1 27.9
2019-Oct-13 12:03N 07°18' E 077°30'18 5.1 250 / 161009.3 27.7
2019-Oct-13 08:33N 07°00' E 077°30'6 2.4 1010.2 27.0
2019-Oct-13 06:03N 07°00' E 077°36'13 4.4 320 / 61012.5 28.5
2019-Oct-13 03:03N 06°54' E 077°48'27 8.9 250 / 41012.6 27.7
2019-Oct-13 00:03N 06°42' E 078°12'61 9.5 320 / 41010.3 27.4
2019-Oct-12 17:33N 06°12' E 079°06'25 8.2 190 / 21012.5 27.4
2019-Oct-12 14:33N 06°06' E 079°30'8 3.4 280 / 121011.2 25.2
2019-Oct-12 12:03N 06°00' E 079°36'19 6.3 100 / 41009.7 27.9
2019-Oct-12 09:03N 05°54' E 079°54'3010.1 340 / 21009.4 28.2
2019-Oct-12 06:03N 05°48' E 080°24'30 9.9 140 / 41011.9 27.8
2019-Oct-12 03:03N 05°48' E 080°54'59 9.8 1011.7 27.0
2019-Oct-11 21:03N 06°12' E 081°48'27 8.9 320 / 101009.9 26.1
2019-Oct-11 18:03N 06°36' E 082°00'24 8.0 280 / 141011.8 26.8
2019-Oct-11 15:03N 07°00' E 082°00'42 7.1 290 / 161012.1 26.4
2019-Oct-11 09:03N 07°42' E 082°06'25 8.2 320 / 61009.4 28.3
2019-Oct-11 06:03N 08°06' E 082°00'22 7.2 350 / 81012.4 28.4
2019-Oct-11 03:03N 08°24' E 081°48'22 7.2 210 / 81013.0 26.9
2019-Oct-11 00:03N 08°42' E 081°36'19 6.3 310 / 121010.5 27.8
2019-Oct-10 21:03N 09°00' E 081°30'22 7.2 280 / 141010.4 27.7
2019-Oct-10 18:03N 09°18' E 081°18'22 7.2 230 / 101012.0 28.5
2019-Oct-10 15:03N 09°36' E 081°06'27 8.9 210 / 81011.3 28.8
2019-Oct-10 12:03N 10°00' E 080°54'27 7.6 240 / 41009.2 28.9
2019-Oct-10 08:33N 10°24' E 080°42'6 2.4 260 / 101010.1 29.1
2019-Oct-10 06:03N 10°30' E 080°42'18 2.0 200 / 61012.2 30.5
2019-Oct-09 21:03N 10°30' E 080°24'18 5.9 170 / 141009.7 28.5
2019-Oct-09 18:03N 10°30' E 080°06'12 3.9 150 / 121011.4 28.8
2019-Oct-09 15:03N 10°30' E 080°18'12 3.4 120 / 141011.7 29.0
2019-Oct-09 11:33N 10°30' E 080°30'6 2.4 110 / 61008.3 30.2
2019-Oct-09 09:03N 10°30' E 080°36'6 2.0 200 / 41008.8 30.3
2019-Oct-09 06:03N 10°30' E 080°42'6 2.0 160 / 21011.3 30.1
2019-Oct-09 03:03N 10°36' E 080°42'24 8.0 220 / 61012.0 28.7
2019-Oct-09 00:03N 11°00' E 080°42'24 8.0 220 / 61010.4 28.2
2019-Oct-08 21:03N 11°24' E 080°42'3010.0 190 / 81010.0 28.1
2019-Oct-08 18:03N 11°54' E 080°42'30 8.6 220 / 41011.7 28.5
2019-Oct-08 14:33N 12°24' E 080°42'18 2.1 180 / 81010.7 28.7
2019-Oct-08 06:03N 12°42' E 080°42'0 0.0 220 / 101011.3 28.7
2019-Oct-08 03:03N 12°42' E 080°42'8 2.8 280 / 81012.1 28.4
2019-Oct-08 00:03N 12°48' E 080°36'17 5.6 280 / 121010.4 28.1
2019-Oct-07 21:03N 13°00' E 080°24'8 2.8 200 / 81010.4 28.3
2019-Oct-07 18:03N 13°06' E 080°18'0 0.0 170 / 61011.6 28.5
2019-Oct-07 15:03N 13°06' E 080°18'0 0.0 160 / 61011.4 28.9
2019-Oct-07 12:03N 13°06' E 080°18'0 0.0 150 / 101008.2 29.1
2019-Oct-07 09:03N 13°06' E 080°18'0 0.0 150 / 81008.8 29.5
2019-Oct-07 06:03N 13°06' E 080°18'0 0.0 140 / 101011.9 29.9
2019-Oct-07 03:03N 13°06' E 080°18'0 0.0 220 / 41013.2 29.9
2019-Oct-06 15:03N 13°06' E 080°18'0 0.0 180 / 61011.1 28.6
2019-Oct-06 12:03N 13°06' E 080°18'0 0.0 180 / 41008.6 29.2
2019-Oct-06 06:03N 13°06' E 080°18'0 0.0 170 / 61012.3 29.5
2019-Oct-06 03:03N 13°06' E 080°18'   220 / 21013.3 30.7

Dump ship's entire track history